This is the latest recevied weather packets stored in our database for station/object KD8OZS. If no packets are shown the sender has not sent any weather packets the latest 10 day(s).
| Time | Temp. | Humidity | Pressure | Rain* | Wind** | Luminosity | Snow |
|---|---|---|---|---|---|---|---|
| 1787578804 | 17.22° C | 75% | 1009.5 hPa | 0 mm | - | 462 W/m² | - |
| 1787578499 | 16.67° C | 77% | 1009.4 hPa | 0 mm | - | 426 W/m² | - |
| 1787578198 | 16.67° C | 80% | 1009.4 hPa | 0 mm | - | 387 W/m² | - |
| 1787577894 | 16.67° C | 80% | 1009.4 hPa | 0 mm | - | 388 W/m² | - |
| 1787577589 | 16.67° C | 82% | 1009.4 hPa | 0 mm | - | 367 W/m² | - |
| 1787577285 | 16.11° C | 84% | 1009.4 hPa | 0 mm | - | 343 W/m² | - |
| 1787576981 | 15.56° C | 84% | 1009.5 hPa | 0 mm | - | 321 W/m² | - |
| 1787576681 | 15.56° C | 85% | 1009.3 hPa | 0 mm | - | 325 W/m² | - |
| 1787576378 | 15.56° C | 86% | 1009.2 hPa | 0 mm | - | 301 W/m² | - |
| 1787576073 | 15.56° C | 87% | 1009.4 hPa | 0 mm | - | 283 W/m² | - |
| 1787575768 | 14.44° C | 87% | 1009.3 hPa | 0 mm | - | 224 W/m² | - |
| 1787575464 | 14.44° C | 89% | 1009.1 hPa | 0 mm | - | 242 W/m² | - |
| 1787575159 | 13.89° C | 92% | 1009.2 hPa | 0 mm | - | 223 W/m² | - |
| 1787574859 | 13.89° C | 95% | 1009.3 hPa | 0 mm | - | 184 W/m² | - |
| 1787574554 | 13.89° C | 97% | 1009.2 hPa | 0 mm | - | 167 W/m² | - |
| 1787574253 | 12.78° C | 98% | 1009.5 hPa | 0 mm | - | 110 W/m² | - |
| 1787573948 | 12.78° C | 98% | 1009.3 hPa | 0 mm | - | 95 W/m² | - |
| 1787573647 | 13.89° C | 99% | 1009.3 hPa | 0 mm | - | 98 W/m² | - |
| 1787573343 | 12.78° C | 99% | 1009.3 hPa | 0 mm | - | 84 W/m² | - |
| 1787573039 | 12.22° C | 99% | 1009.1 hPa | 0 mm | - | 78 W/m² | - |
| 1787572735 | 11.11° C | 99% | 1009.5 hPa | 0 mm | - | 46 W/m² | - |
| 1787572430 | 11.11° C | 99% | 1009.6 hPa | 0 mm | - | 36 W/m² | - |
| 1787572125 | 11.11° C | 99% | 1009.4 hPa | 0 mm | - | 32 W/m² | - |
| 1787571825 | 10.56° C | 99% | 1009.3 hPa | 0 mm | - | 31 W/m² | - |
| 1787571519 | 10.56° C | 99% | 1008.9 hPa | 0 mm | - | 28 W/m² | - |
* Rain latest hour (hover to see other rain measurements)
** Current wind speed in m/s (hover to see current wind gust speed)